Time;durP1;ratioP1;P1;durP2;ratioP2;P2;SDS_P1;SDS_P2;PMS_P1;PMS_P2;Temp;Humidity;BMP_temperature;BMP_pressure;BME280_temperature;BME280_humidity;BME280_pressure;Samples;Min_cycle;Max_cycle;Signal;HPM_P1;HPM_P2
2022/11/20 00:01:46;;;;;;;;;4.75;3.50;;;;;7.77;79.20;98984.97;4954442;28;46441;-76
2022/11/20 00:04:11;;;;;;;;;8.50;6.75;;;;;7.76;79.37;98988.50;4943136;28;45320;-76
2022/11/20 00:06:37;;;;;;;;;11.75;6.50;;;;;7.75;79.32;98982.41;4949781;28;45565;-76
2022/11/20 00:09:02;;;;;;;;;6.50;6.25;;;;;7.75;79.12;98982.41;4951171;28;45540;-76
2022/11/20 00:11:30;;;;;;;;;6.75;6.75;;;;;7.75;79.12;98982.41;4953214;28;46456;-77
2022/11/20 00:14:00;;;;;;;;;10.00;9.75;;;;;7.72;79.48;98993.84;4940642;28;45469;-76
2022/11/20 00:16:27;;;;;;;;;6.25;5.50;;;;;7.72;79.62;98985.09;4952216;28;45439;-76
2022/11/20 00:18:53;;;;;;;;;8.00;8.00;;;;;7.69;79.89;99003.59;4963874;28;45356;-76
2022/11/20 00:21:24;;;;;;;;;3.25;3.25;;;;;7.68;80.01;98991.38;4945562;28;46292;-76
2022/11/20 00:23:51;;;;;;;;;13.50;7.25;;;;;7.66;80.19;98994.03;4947426;28;45435;-76
2022/11/20 00:26:18;;;;;;;;;8.00;8.00;;;;;7.65;79.97;98997.56;4954152;28;45466;-76
2022/11/20 00:28:48;;;;;;;;;9.25;9.25;;;;;7.66;80.04;99008.94;4953946;28;45502;-76
2022/11/20 00:31:15;;;;;;;;;7.75;6.50;;;;;7.67;79.98;99006.25;4954072;28;46430;-76
2022/11/20 00:33:42;;;;;;;;;8.75;8.75;;;;;7.66;80.23;99001.06;4951583;28;45362;-76
2022/11/20 00:36:22;;;;;;;;;8.50;8.50;;;;;7.65;80.23;99008.06;4954153;28;45488;-76
2022/11/20 00:38:52;;;;;;;;;8.50;8.00;;;;;7.64;79.98;99008.09;4951640;28;45447;-75
2022/11/20 00:41:17;;;;;;;;;7.00;7.00;;;;;7.64;79.98;99005.50;4957140;28;45807;-75
2022/11/20 00:43:43;;;;;;;;;5.25;5.25;;;;;7.63;80.14;99009.00;4952387;28;45460;-74
2022/11/20 00:46:14;;;;;;;;;8.75;8.75;;;;;7.67;80.38;99010.66;4941879;28;45553;-76
2022/11/20 00:48:39;;;;;;;;;11.00;8.00;;;;;7.63;80.20;99019.50;4954625;28;45473;-74
2022/11/20 00:51:05;;;;;;;;;7.25;6.75;;;;;7.60;80.35;99009.97;4945599;28;45956;-74
2022/11/20 00:53:31;;;;;;;;;10.75;10.75;;;;;7.65;80.27;99008.06;4954276;28;45489;-76
2022/11/20 00:56:03;;;;;;;;;7.75;6.50;;;;;7.64;80.28;99031.72;4949406;28;45449;-74
2022/11/20 00:58:31;;;;;;;;;3.50;3.00;;;;;7.63;80.25;99024.75;4948803;28;45612;-76
2022/11/20 01:01:05;;;;;;;;;5.00;4.25;;;;;7.61;80.12;99024.78;4951834;28;45420;-75
2022/11/20 01:03:32;;;;;;;;;5.00;5.00;;;;;7.59;80.37;99031.00;4949080;28;45461;-76
2022/11/20 01:06:12;;;;;;;;;4.25;4.25;;;;;7.58;80.95;99032.75;4954160;28;45455;-76
2022/11/20 01:08:38;;;;;;;;;7.75;6.25;;;;;7.56;81.01;99029.31;4953688;28;45581;-76
2022/11/20 01:11:06;;;;;;;;;7.75;7.25;;;;;7.54;81.52;99025.88;4949548;28;45459;-74
2022/11/20 01:13:38;;;;;;;;;9.50;8.00;;;;;7.54;81.33;99028.50;4948968;28;45499;-77
2022/11/20 01:16:10;;;;;;;;;8.25;8.25;;;;;7.55;80.63;99027.59;4953556;28;45429;-75
2022/11/20 01:18:37;;;;;;;;;4.75;4.75;;;;;7.58;80.03;99038.00;4945316;28;45482;-75
2022/11/20 01:21:06;;;;;;;;;6.50;6.25;;;;;7.63;80.73;99046.59;4942143;28;46129;-75
2022/11/20 01:23:34;;;;;;;;;8.00;7.25;;;;;7.65;80.85;99036.06;4948993;28;45505;-75
2022/11/20 01:26:02;;;;;;;;;9.50;7.00;;;;;7.64;80.70;99061.44;4961077;28;45707;-75
2022/11/20 01:28:28;;;;;;;;;5.00;5.00;;;;;7.65;80.25;99057.91;4941973;28;45439;-75
2022/11/20 01:30:54;;;;;;;;;6.25;6.25;;;;;7.65;79.81;99052.66;4944595;28;46477;-75
2022/11/20 01:33:19;;;;;;;;;5.75;4.50;;;;;7.66;79.46;99049.13;4958261;28;45539;-75
2022/11/20 01:35:44;;;;;;;;;5.00;5.00;;;;;7.67;79.15;99056.13;4967391;28;45431;-75
2022/11/20 01:38:10;;;;;;;;;5.00;5.00;;;;;7.70;79.13;99047.28;4948109;28;45396;-75
2022/11/20 01:40:35;;;;;;;;;3.00;3.00;;;;;7.71;78.87;99057.72;4941450;28;45395;-76
2022/11/20 01:43:20;;;;;;;;;4.25;4.00;;;;;7.71;78.87;99060.34;4947455;28;45505;-75
2022/11/20 01:45:54;;;;;;;;;4.00;4.00;;;;;7.73;78.71;99041.94;4942691;28;45358;-76
2022/11/20 01:48:23;;;;;;;;;3.50;3.00;;;;;7.73;79.32;99052.41;4969755;28;45605;-75
2022/11/20 01:50:51;;;;;;;;;3.00;3.00;;;;;7.73;79.02;99060.28;4960231;28;47292;-75
2022/11/20 01:53:19;;;;;;;;;4.50;4.00;;;;;7.72;79.03;99061.19;4956767;28;45437;-75
2022/11/20 01:55:51;;;;;;;;;4.00;4.00;;;;;7.71;79.10;99047.22;4950243;28;45432;-75
2022/11/20 01:58:20;;;;;;;;;4.00;4.00;;;;;7.70;79.30;99048.16;4960999;28;45521;-75
2022/11/20 02:00:45;;;;;;;;;5.00;5.00;;;;;7.69;79.32;99045.56;4963674;28;46470;-75
2022/11/20 02:03:14;;;;;;;;;4.50;4.00;;;;;7.68;79.15;99046.47;4950962;28;45464;-75
2022/11/20 02:06:02;;;;;;;;;5.50;5.00;;;;;7.66;79.37;99043.91;4957077;28;45817;-75
2022/11/20 02:08:28;;;;;;;;;4.50;4.00;;;;;7.67;79.34;99052.63;4956634;28;45580;-75
2022/11/20 02:10:53;;;;;;;;;7.50;5.50;;;;;7.66;78.87;99058.78;4951225;28;46318;-75
2022/11/20 02:16:03;;;;;;;;;9.75;7.00;;;;;7.66;79.18;99043.03;4955005;28;45403;-75
2022/11/20 02:18:30;;;;;;;;;7.75;7.00;;;;;7.64;78.96;99044.84;4952185;28;45406;-75
2022/11/20 02:21:42;;;;;;;;;6.25;6.25;;;;;7.63;79.14;99051.84;4937414;28;45489;-75
2022/11/20 02:24:17;;;;;;;;;10.75;6.50;;;;;7.63;79.48;99057.09;4962263;28;45950;-75
2022/11/20 02:26:51;;;;;;;;;5.25;4.50;;;;;7.60;79.10;99051.94;4956555;28;45723;-75
2022/11/20 02:29:22;;;;;;;;;8.00;6.25;;;;;7.63;79.14;99053.63;4956526;28;45485;-75
2022/11/20 02:31:47;;;;;;;;;9.25;8.75;;;;;7.62;78.55;99044.03;4956101;28;45763;-75
2022/11/20 02:34:13;;;;;;;;;5.50;4.75;;;;;7.62;78.98;99054.50;4965578;28;45976;-75
2022/11/20 02:36:42;;;;;;;;;7.75;7.75;;;;;7.63;78.66;99043.13;4955910;28;45612;-75
2022/11/20 02:39:10;;;;;;;;;8.25;8.25;;;;;7.60;78.53;99044.06;4955943;28;45496;-75
2022/11/20 02:41:37;;;;;;;;;8.00;7.00;;;;;7.57;78.46;99038.91;4952122;28;46231;-75
2022/11/20 02:44:04;;;;;;;;;8.75;8.25;;;;;7.54;78.44;99051.28;4949545;28;45438;-75
2022/11/20 02:46:30;;;;;;;;;9.25;8.25;;;;;7.51;78.40;99051.34;4949811;28;45406;-75
2022/11/20 02:48:55;;;;;;;;;11.00;10.00;;;;;7.49;78.18;99050.53;4956498;28;45517;-75
2022/11/20 02:51:21;;;;;;;;;9.50;9.50;;;;;7.45;78.45;99059.38;4954412;28;46296;-76
2022/11/20 02:53:47;;;;;;;;;10.25;9.25;;;;;7.38;78.33;99055.22;4950383;28;45466;-75
2022/11/20 02:56:12;;;;;;;;;10.75;8.00;;;;;7.32;78.43;99057.13;4953946;28;45438;-75
2022/11/20 02:58:37;;;;;;;;;10.25;6.75;;;;;7.29;78.55;99059.81;4955991;28;45540;-75
2022/11/20 03:01:03;;;;;;;;;7.50;6.25;;;;;7.25;78.47;99060.81;4942569;28;45518;-75
2022/11/20 03:03:28;;;;;;;;;10.00;9.00;;;;;7.20;78.39;99052.22;4954955;28;45444;-75
2022/11/20 03:05:54;;;;;;;;;5.00;5.00;;;;;7.16;78.30;99057.59;4957154;28;45371;-75
2022/11/20 03:08:19;;;;;;;;;5.25;5.25;;;;;7.13;78.73;99055.03;4947222;28;45451;-75
2022/11/20 03:10:44;;;;;;;;;4.50;4.25;;;;;7.11;78.62;99048.97;4954829;28;45718;-75
2022/11/20 03:13:10;;;;;;;;;7.50;6.50;;;;;7.07;78.40;99052.56;4951254;28;45455;-75
2022/11/20 03:15:36;;;;;;;;;8.33;8.33;;;;;7.05;78.41;99055.25;4967487;28;45363;-75
2022/11/20 03:18:03;;;;;;;;;8.25;8.25;;;;;7.02;78.73;99052.72;4951461;28;45436;-75
2022/11/20 03:20:28;;;;;;;;;7.75;7.25;;;;;7.03;78.77;99056.22;4951017;28;45447;-75
2022/11/20 03:22:54;;;;;;;;;7.25;7.25;;;;;7.02;78.63;99065.81;4950220;28;45355;-75
2022/11/20 03:25:20;;;;;;;;;5.00;5.00;;;;;7.03;78.81;99061.44;4944549;28;45659;-75
2022/11/20 03:27:45;;;;;;;;;5.00;5.00;;;;;7.03;78.90;99058.81;4946401;28;45517;-75
2022/11/20 03:30:11;;;;;;;;;9.00;8.00;;;;;7.04;79.03;99071.88;4954267;28;45466;-75
2022/11/20 03:32:36;;;;;;;;;10.00;9.33;;;;;7.04;79.37;99065.78;4947039;28;45476;-75
2022/11/20 03:35:02;;;;;;;;;9.33;9.00;;;;;7.04;80.21;99071.03;4951675;28;45424;-75
2022/11/20 03:37:27;;;;;;;;;11.00;11.00;;;;;7.05;80.48;99070.09;4955224;28;45458;-75
2022/11/20 03:39:53;;;;;;;;;11.33;11.33;;;;;7.08;80.64;99067.41;4954999;28;45524;-75
2022/11/20 03:45:03;;;;;;;;;10.00;9.33;;;;;7.16;79.91;99066.31;4950411;28;45603;-75
2022/11/20 03:47:28;;;;;;;;;7.25;7.00;;;;;7.17;79.41;99064.56;4954519;28;45468;-75
2022/11/20 03:49:53;;;;;;;;;5.25;5.25;;;;;7.17;79.30;99075.03;4951353;28;45930;-75
2022/11/20 03:52:19;;;;;;;;;8.00;7.00;;;;;7.17;79.19;99070.66;4954920;28;45647;-75
2022/11/20 03:54:44;;;;;;;;;8.00;6.67;;;;;7.18;78.77;99075.00;4955784;28;45505;-75
2022/11/20 03:57:09;;;;;;;;;7.75;6.25;;;;;7.18;78.62;99076.75;4970007;28;45373;-75
2022/11/20 03:59:35;;;;;;;;;8.75;6.00;;;;;7.18;78.67;99077.63;4954950;28;46530;-75
2022/11/20 04:02:00;;;;;;;;;7.00;5.25;;;;;7.18;78.50;99082.00;4954973;28;45491;-75
2022/11/20 04:04:26;;;;;;;;;9.50;8.75;;;;;7.18;78.26;99082.88;4946160;28;45372;-75
2022/11/20 04:06:51;;;;;;;;;10.50;8.50;;;;;7.17;78.49;99104.75;4957832;28;45429;-75
2022/11/20 04:09:16;;;;;;;;;8.00;7.50;;;;;7.12;78.76;99084.78;4952650;28;45812;-75
2022/11/20 04:11:42;;;;;;;;;4.00;4.00;;;;;7.06;78.70;99101.53;4943343;28;45532;-75
2022/11/20 04:14:14;;;;;;;;;7.25;7.25;;;;;7.04;78.47;99099.88;4950048;28;45488;-75
2022/11/20 04:16:39;;;;;;;;;8.75;8.50;;;;;7.03;78.64;99106.88;4954795;28;45542;-74
2022/11/20 04:19:09;;;;;;;;;9.00;8.00;;;;;7.03;78.47;99098.13;4951752;28;46100;-74
2022/11/20 04:21:34;;;;;;;;;6.50;5.00;;;;;6.99;78.69;99100.84;4954415;28;45569;-74
2022/11/20 04:24:00;;;;;;;;;9.00;9.00;;;;;6.94;78.65;99107.09;4945490;28;45449;-74
2022/11/20 04:26:27;;;;;;;;;6.75;6.25;;;;;6.88;78.72;99120.34;4946679;28;45558;-74
2022/11/20 04:28:53;;;;;;;;;5.00;4.25;;;;;6.84;78.83;99111.72;4953311;28;46371;-75
2022/11/20 04:31:22;;;;;;;;;7.75;5.50;;;;;6.84;78.95;99126.56;4954534;28;45501;-75
2022/11/20 04:33:48;;;;;;;;;8.00;8.00;;;;;6.82;78.80;99125.75;4948668;28;45468;-75
2022/11/20 04:36:22;;;;;;;;;8.50;7.75;;;;;6.80;79.02;99127.53;4954259;28;45517;-74
2022/11/20 04:38:58;;;;;;;;;4.00;4.00;;;;;6.80;79.11;99111.81;4951770;28;45588;-74
2022/11/20 04:41:26;;;;;;;;;7.75;7.00;;;;;6.79;79.39;99116.19;4955364;28;45514;-74
2022/11/20 04:44:02;;;;;;;;;8.00;8.00;;;;;6.76;79.32;99115.41;4951525;28;45446;-75
2022/11/20 04:46:29;;;;;;;;;8.75;7.00;;;;;6.76;79.07;99112.78;4953202;28;45552;-75
2022/11/20 04:48:55;;;;;;;;;9.00;7.25;;;;;6.77;79.31;99115.38;4952573;28;48312;-76
2022/11/20 04:51:20;;;;;;;;;8.25;5.50;;;;;6.81;79.24;99111.78;4952743;28;45510;-76
2022/11/20 04:53:45;;;;;;;;;9.25;9.25;;;;;6.83;79.37;99115.22;4952412;28;45480;-74
2022/11/20 04:56:12;;;;;;;;;5.00;5.00;;;;;6.87;79.09;99121.25;4946235;28;45624;-75
2022/11/20 04:58:39;;;;;;;;;8.67;7.67;;;;;6.89;79.06;99120.31;4948582;28;45565;-76
2022/11/20 05:01:15;;;;;;;;;6.50;6.50;;;;;6.92;79.19;99124.59;4947042;28;45413;-76
2022/11/20 05:03:42;;;;;;;;;7.00;7.00;;;;;6.92;79.20;99124.59;4948521;28;45422;-76
2022/11/20 05:06:10;;;;;;;;;4.75;4.75;;;;;6.95;79.01;99129.78;4950366;28;45502;-76
2022/11/20 05:08:35;;;;;;;;;8.25;7.25;;;;;6.97;79.07;99134.09;4954126;28;46603;-76
2022/11/20 05:11:03;;;;;;;;;6.00;6.00;;;;;6.98;79.13;99119.22;4948931;28;45733;-76
2022/11/20 05:13:29;;;;;;;;;8.25;8.25;;;;;6.96;79.20;99123.63;4952304;28;45404;-76
2022/11/20 05:15:54;;;;;;;;;9.00;8.00;;;;;6.96;78.95;99128.88;4954526;28;45797;-76
2022/11/20 05:18:19;;;;;;;;;10.00;8.00;;;;;6.95;78.96;99128.00;4947742;28;46157;-76
2022/11/20 05:20:45;;;;;;;;;9.50;8.50;;;;;6.97;79.11;99128.84;4954434;28;45583;-76
2022/11/20 05:23:10;;;;;;;;;7.25;7.25;;;;;6.99;78.73;99132.28;4946509;28;45784;-76
2022/11/20 05:25:35;;;;;;;;;6.25;5.00;;;;;7.00;79.22;99130.53;4945613;28;45487;-76
2022/11/20 05:28:01;;;;;;;;;7.75;7.75;;;;;6.99;79.00;99131.44;4956614;28;46320;-75
2022/11/20 05:30:26;;;;;;;;;8.50;7.50;;;;;6.95;79.23;99132.41;4956979;28;45580;-76
2022/11/20 05:32:52;;;;;;;;;8.75;7.25;;;;;6.91;79.28;99130.75;4957824;28;45651;-76
2022/11/20 05:35:17;;;;;;;;;8.75;7.25;;;;;6.88;79.21;99121.19;4957773;28;45635;-76
2022/11/20 05:37:42;;;;;;;;;8.50;8.50;;;;;6.89;79.25;99125.53;4956569;28;46488;-76
2022/11/20 05:40:09;;;;;;;;;4.00;4.00;;;;;6.90;79.07;99132.50;4956867;28;45473;-75
2022/11/20 05:42:35;;;;;;;;;9.25;8.00;;;;;6.90;79.29;99123.78;4956582;28;45541;-75
2022/11/20 05:45:02;;;;;;;;;7.25;6.00;;;;;6.90;78.94;99129.03;4940383;28;45387;-76
2022/11/20 05:47:32;;;;;;;;;9.00;7.75;;;;;6.90;79.00;99127.25;4957048;28;45462;-76
2022/11/20 05:49:57;;;;;;;;;8.67;8.33;;;;;6.91;79.26;99122.88;4947227;28;45396;-76
2022/11/20 05:52:22;;;;;;;;;7.75;5.00;;;;;6.90;79.66;99122.03;4956821;28;45479;-75
2022/11/20 05:54:48;;;;;;;;;7.50;7.50;;;;;6.90;79.60;99121.16;4951738;28;45462;-75
2022/11/20 05:57:13;;;;;;;;;7.75;6.50;;;;;6.87;79.45;99126.50;4953516;28;45550;-75
2022/11/20 05:59:39;;;;;;;;;10.25;8.00;;;;;6.86;79.33;99130.03;4938916;28;45561;-75
2022/11/20 06:02:04;;;;;;;;;9.33;8.00;;;;;6.86;79.44;99130.03;4967756;28;45491;-75
2022/11/20 06:04:29;;;;;;;;;8.00;7.00;;;;;6.85;79.61;99125.69;4945150;28;45560;-75
2022/11/20 06:06:55;;;;;;;;;9.00;9.00;;;;;6.84;79.31;99118.72;4953700;28;45922;-76
2022/11/20 06:09:20;;;;;;;;;8.00;7.67;;;;;6.83;79.53;99119.63;4956611;28;45307;-75
2022/11/20 06:11:45;;;;;;;;;5.50;5.50;;;;;6.83;79.30;99120.47;4951045;28;45465;-75
2022/11/20 06:14:11;;;;;;;;;6.75;6.75;;;;;6.86;79.26;99130.03;4949558;28;45372;-75
2022/11/20 06:16:36;;;;;;;;;4.75;4.75;;;;;6.84;79.48;99127.44;4949543;28;45493;-75
2022/11/20 06:19:02;;;;;;;;;9.67;9.67;;;;;6.83;79.56;99123.09;4947577;28;45440;-75
2022/11/20 06:21:27;;;;;;;;;6.75;5.00;;;;;6.83;79.80;99127.47;4953078;28;45555;-75
2022/11/20 06:23:53;;;;;;;;;7.00;7.00;;;;;6.80;79.77;99117.94;4952749;28;45441;-76
2022/11/20 06:26:21;;;;;;;;;8.00;7.50;;;;;6.77;79.84;99128.47;4956372;28;45564;-75
2022/11/20 06:28:47;;;;;;;;;6.25;6.25;;;;;6.77;79.74;99123.22;4955071;28;45834;-75
2022/11/20 06:31:15;;;;;;;;;11.00;10.00;;;;;6.76;79.22;99131.13;4956674;28;45519;-75
2022/11/20 06:33:41;;;;;;;;;10.25;8.25;;;;;6.75;79.79;99132.88;4956341;28;45592;-75
2022/11/20 06:36:07;;;;;;;;;10.25;9.25;;;;;6.75;79.20;99137.25;4956053;28;45481;-75
2022/11/20 06:38:32;;;;;;;;;8.00;6.50;;;;;6.73;79.81;99136.44;4955277;28;45372;-76
2022/11/20 06:40:58;;;;;;;;;5.75;5.75;;;;;6.71;79.54;99135.63;4968501;28;45526;-75
2022/11/20 06:43:24;;;;;;;;;9.00;8.50;;;;;6.70;79.57;99132.16;4950506;28;45413;-75
2022/11/20 06:45:54;;;;;;;;;9.75;7.50;;;;;6.68;79.61;99126.09;4956427;28;46642;-75
2022/11/20 06:48:20;;;;;;;;;10.75;8.25;;;;;6.66;79.47;99125.25;4955595;28;45407;-75
2022/11/20 06:50:45;;;;;;;;;12.67;9.33;;;;;6.67;79.47;99132.22;4950816;28;45397;-75
2022/11/20 06:53:10;;;;;;;;;10.25;8.75;;;;;6.66;79.79;99133.13;4970858;28;45988;-75
2022/11/20 06:55:36;;;;;;;;;10.00;8.33;;;;;6.64;79.65;99133.16;4956257;28;45330;-75
2022/11/20 06:58:01;;;;;;;;;7.50;7.50;;;;;6.63;79.51;99135.81;4955944;28;45498;-75
2022/11/20 07:00:27;;;;;;;;;8.50;8.50;;;;;6.64;79.62;99140.16;4946927;28;45867;-76
2022/11/20 07:02:52;;;;;;;;;8.33;8.00;;;;;6.64;79.87;99142.78;4950952;28;45370;-75
2022/11/20 07:05:17;;;;;;;;;12.67;12.33;;;;;6.61;79.95;99150.69;4961961;28;46107;-75
2022/11/20 07:07:43;;;;;;;;;3.67;3.00;;;;;6.56;80.08;99137.69;4953972;28;45864;-75
2022/11/20 07:10:09;;;;;;;;;9.67;9.67;;;;;6.55;80.26;99143.84;4956271;28;45574;-75
2022/11/20 07:12:34;;;;;;;;;14.67;13.00;;;;;6.54;80.38;99141.25;4953851;28;45367;-75
2022/11/20 07:14:59;;;;;;;;;14.00;10.25;;;;;6.52;80.51;99154.41;4955794;28;46040;-75
2022/11/20 07:19:48;;;;;;;;;12.00;11.67;;;;;6.45;80.66;99152.81;5105664;27;45497;-75
2022/11/20 07:22:13;;;;;;;;;10.67;10.67;;;;;6.46;80.25;99162.41;5101983;27;45491;-73
2022/11/20 07:24:39;;;;;;;;;11.33;10.00;;;;;6.50;81.10;99158.81;5090452;27;45549;-74
2022/11/20 07:27:04;;;;;;;;;11.33;8.67;;;;;6.49;81.15;99169.31;5088576;27;45392;-74
2022/11/20 07:29:30;;;;;;;;;10.00;8.33;;;;;6.48;80.99;99163.22;5089038;27;46371;-74
2022/11/20 07:31:56;;;;;;;;;6.67;5.33;;;;;6.52;81.57;99164.03;5088640;27;45511;-74
2022/11/20 07:34:21;;;;;;;;;10.33;9.00;;;;;6.55;81.37;99170.03;5090682;27;45399;-73
2022/11/20 07:36:47;;;;;;;;;12.33;9.00;;;;;6.53;81.23;99169.22;5089455;27;45459;-73
2022/11/20 07:39:12;;;;;;;;;8.67;7.67;;;;;6.53;81.15;99177.09;5089747;27;45645;-75
2022/11/20 07:41:37;;;;;;;;;11.00;9.33;;;;;6.56;81.09;99181.38;5087872;27;45333;-76
2022/11/20 07:44:03;;;;;;;;;9.67;9.00;;;;;6.58;81.28;99180.44;5084099;27;45576;-76
2022/11/20 07:46:28;;;;;;;;;14.00;11.33;;;;;6.64;81.15;99184.69;5087604;27;45597;-74
2022/11/20 07:48:54;;;;;;;;;10.33;10.00;;;;;6.69;80.93;99182.81;5079418;27;45420;-75
2022/11/20 07:51:19;;;;;;;;;12.67;10.67;;;;;6.74;80.61;99185.31;5085517;27;45464;-75
2022/11/20 07:53:44;;;;;;;;;14.33;10.33;;;;;6.78;80.94;99182.59;5081951;27;45633;-75
2022/11/20 07:56:10;;;;;;;;;10.00;10.00;;;;;6.86;80.82;99178.06;5073453;27;45534;-75
2022/11/20 07:58:35;;;;;;;;;11.67;10.00;;;;;6.93;80.88;99183.97;5080020;27;45506;-75
2022/11/20 08:01:06;;;;;;;;;11.33;10.67;;;;;6.97;80.42;99181.25;5075465;27;45506;-76
2022/11/20 08:03:31;;;;;;;;;13.33;12.33;;;;;7.04;80.22;99179.31;5081348;27;45537;-76
2022/11/20 08:06:00;;;;;;;;;13.33;12.33;;;;;7.08;79.81;99180.13;5089390;27;45318;-76
2022/11/20 08:08:25;;;;;;;;;15.00;13.67;;;;;7.13;80.00;99178.25;5082871;27;45894;-75
2022/11/20 08:10:51;;;;;;;;;14.67;10.67;;;;;7.18;79.57;99179.00;5089442;27;45448;-76
2022/11/20 08:16:01;;;;;;;;;13.67;12.00;;;;;7.31;79.31;99177.78;5081125;27;45529;-76
2022/11/20 08:18:26;;;;;;;;;8.33;7.67;;;;;7.38;79.00;99183.72;5081736;27;45513;-76
2022/11/20 08:20:51;;;;;;;;;10.33;8.00;;;;;7.43;78.82;99182.69;5088287;27;45493;-76
2022/11/20 08:23:17;;;;;;;;;11.67;11.00;;;;;7.47;78.61;99181.72;5087553;27;45423;-76
2022/11/20 08:25:42;;;;;;;;;11.67;11.00;;;;;7.50;78.25;99181.66;5089149;27;45630;-75
2022/11/20 08:28:09;;;;;;;;;15.67;15.67;;;;;7.55;78.43;99187.59;5086420;27;45691;-76
2022/11/20 08:30:36;;;;;;;;;12.33;12.00;;;;;7.59;78.21;99185.78;5078442;27;45668;-76
2022/11/20 08:33:04;;;;;;;;;11.00;10.67;;;;;7.64;78.24;99200.50;5069835;27;45431;-75
2022/11/20 08:35:34;;;;;;;;;11.33;10.67;;;;;7.70;77.92;99194.22;5075241;27;45387;-75
2022/11/20 08:38:00;;;;;;;;;13.00;12.00;;;;;7.75;77.88;99187.06;5070355;28;46308;-74
2022/11/20 08:40:25;;;;;;;;;12.00;12.00;;;;;7.79;77.95;99183.47;5075098;27;45380;-75
2022/11/20 08:42:51;;;;;;;;;11.00;11.00;;;;;7.83;77.55;99177.25;5075258;28;45483;-75
2022/11/20 08:45:18;;;;;;;;;7.00;7.00;;;;;7.90;77.19;99185.78;5072216;28;45432;-75
2022/11/20 08:47:44;;;;;;;;;10.33;8.00;;;;;7.95;77.42;99186.53;5067547;28;46111;-75
2022/11/20 08:50:11;;;;;;;;;8.33;7.67;;;;;7.99;76.99;99177.66;5074012;27;45369;-77
2022/11/20 08:52:37;;;;;;;;;10.00;10.00;;;;;8.03;77.14;99180.16;5072713;28;45425;-75
2022/11/20 08:55:03;;;;;;;;;10.67;9.67;;;;;8.09;77.51;99186.97;5075101;27;45440;-75
2022/11/20 08:57:32;;;;;;;;;12.33;11.33;;;;;8.16;76.97;99175.41;5065295;27;45730;-75
2022/11/20 08:59:57;;;;;;;;;10.00;10.00;;;;;8.23;76.76;99178.69;5074121;27;45450;-75
2022/11/20 09:02:22;;;;;;;;;11.33;11.00;;;;;8.28;76.46;99172.41;5072125;27;45382;-75
2022/11/20 09:04:48;;;;;;;;;10.33;9.33;;;;;8.33;76.23;99167.06;5074009;27;45544;-75
2022/11/20 09:07:13;;;;;;;;;10.00;10.00;;;;;8.36;76.11;99173.09;5065278;27;45767;-75
2022/11/20 09:09:39;;;;;;;;;12.67;12.00;;;;;8.40;75.28;99179.94;5074871;27;45584;-74
2022/11/20 09:12:04;;;;;;;;;13.33;10.67;;;;;8.45;75.65;99179.81;5068392;27;45438;-75
2022/11/20 09:14:29;;;;;;;;;11.67;10.33;;;;;8.48;76.03;99178.84;5072153;28;45485;-76
2022/11/20 09:16:56;;;;;;;;;14.00;12.67;;;;;8.51;75.89;99179.63;5070202;27;46511;-75
2022/11/20 09:19:23;;;;;;;;;12.00;11.00;;;;;8.54;75.77;99182.16;5073454;27;45569;-75
2022/11/20 09:21:49;;;;;;;;;10.25;10.00;;;;;8.54;75.30;99184.78;5069607;27;45487;-75
2022/11/20 09:24:14;;;;;;;;;13.33;11.00;;;;;8.55;75.02;99183.00;5074193;28;45377;-75
2022/11/20 09:26:40;;;;;;;;;15.25;11.75;;;;;8.57;75.13;99186.44;5071890;27;45504;-75
2022/11/20 09:29:05;;;;;;;;;12.25;10.00;;;;;8.61;74.66;99182.81;5072062;28;45423;-76
2022/11/20 09:31:31;;;;;;;;;11.00;9.00;;;;;8.68;74.31;99184.38;5071194;27;45491;-75
2022/11/20 09:33:57;;;;;;;;;9.75;9.75;;;;;8.76;74.09;99187.59;5069082;27;45543;-75
2022/11/20 09:36:22;;;;;;;;;6.50;6.00;;;;;8.82;73.58;99190.03;5073692;27;45569;-75
2022/11/20 09:38:48;;;;;;;;;7.50;5.50;;;;;8.83;72.63;99201.41;5073569;27;45480;-76
2022/11/20 09:41:42;;;;;;;;;5.00;5.00;;;;;8.84;72.14;99198.75;5073564;27;45479;-75
2022/11/20 09:44:39;;;;;;;;;6.50;6.00;;;;;8.86;72.46;99201.31;5069554;28;45597;-75
2022/11/20 09:47:17;;;;;;;;;4.25;4.25;;;;;8.94;71.95;99207.19;5071924;28;46473;-75
2022/11/20 09:50:13;;;;;;;;;4.25;4.25;;;;;8.98;71.76;99216.69;5070428;28;45448;-75
2022/11/20 09:52:56;;;;;;;;;5.00;4.25;;;;;8.98;71.91;99211.44;5068201;28;45469;-76
2022/11/20 09:55:22;;;;;;;;;5.00;5.00;;;;;8.99;71.81;99206.13;5073949;28;45425;-76
2022/11/20 09:57:51;;;;;;;;;5.25;5.25;;;;;9.01;71.94;99203.44;5066263;27;46244;-75
2022/11/20 10:00:19;;;;;;;;;5.00;5.00;;;;;9.02;70.65;99224.44;5071100;28;45411;-75
2022/11/20 10:02:59;;;;;;;;;6.00;6.00;;;;;9.01;70.64;99212.22;5066687;27;45741;-75
2022/11/20 10:05:41;;;;;;;;;6.25;6.25;;;;;9.04;70.72;99216.50;5073961;28;45411;-75
2022/11/20 10:08:08;;;;;;;;;5.25;5.25;;;;;9.01;70.96;99208.72;5067794;28;46114;-75
2022/11/20 10:10:42;;;;;;;;;5.25;4.50;;;;;8.99;70.43;99218.41;5073778;27;45433;-75
2022/11/20 10:13:08;;;;;;;;;6.00;6.00;;;;;8.95;69.45;99217.66;5069762;28;45759;-75
2022/11/20 10:16:27;;;;;;;;;5.25;4.00;;;;;8.97;70.77;99220.22;5072431;28;45598;-76
2022/11/20 10:19:22;;;;;;;;;4.50;4.00;;;;;9.04;68.92;99235.78;5029710;28;46790;-75
2022/11/20 10:22:12;;;;;;;;;0.75;0.75;;;;;9.15;67.69;99250.34;5065048;28;45388;-75
2022/11/20 10:24:43;;;;;;;;;2.50;2.50;;;;;9.20;67.59;99237.91;5071765;28;45549;-75
2022/11/20 10:27:56;;;;;;;;;2.50;2.50;;;;;9.24;68.54;99247.41;5071534;27;45354;-75
2022/11/20 10:30:24;;;;;;;;;6.00;5.00;;;;;9.30;67.47;99242.81;5044676;28;45506;-75
2022/11/20 10:33:08;;;;;;;;;5.00;4.00;;;;;9.34;67.33;99227.78;5069804;27;45589;-75
2022/11/20 10:35:44;;;;;;;;;4.00;4.00;;;;;9.39;67.18;99229.34;5069472;27;45647;-75
2022/11/20 10:38:20;;;;;;;;;3.00;2.75;;;;;9.43;64.85;99233.59;5072203;27;45728;-75
2022/11/20 10:40:50;;;;;;;;;6.00;5.00;;;;;9.42;65.36;99244.16;5072585;27;46324;-75
2022/11/20 10:43:28;;;;;;;;;7.50;7.00;;;;;9.43;66.03;99249.38;5067815;28;45676;-75
2022/11/20 10:46:00;;;;;;;;;4.75;3.00;;;;;9.43;65.33;99227.47;5071168;28;45505;-75
2022/11/20 10:48:27;;;;;;;;;3.00;3.00;;;;;9.44;67.01;99227.41;5072392;27;45518;-75
2022/11/20 10:51:17;;;;;;;;;4.25;4.00;;;;;9.47;65.62;99225.59;5072894;27;45455;-75
2022/11/20 10:53:58;;;;;;;;;4.00;3.75;;;;;9.46;65.70;99232.63;5066920;28;45540;-76
2022/11/20 10:56:30;;;;;;;;;4.75;2.75;;;;;9.48;64.38;99232.59;5070286;28;45570;-75
2022/11/20 10:59:21;;;;;;;;;5.00;5.00;;;;;9.48;65.73;99229.94;5065213;28;45762;-75
2022/11/20 11:01:46;;;;;;;;;4.25;4.25;;;;;9.50;65.15;99226.34;5044392;28;48278;-75
2022/11/20 11:04:21;;;;;;;;;3.00;3.00;;;;;9.53;65.39;99220.13;5068212;28;45357;-75
2022/11/20 11:06:49;;;;;;;;;3.00;3.00;;;;;9.61;65.67;99215.44;5070569;28;45622;-75
2022/11/20 11:09:29;;;;;;;;;5.00;5.00;;;;;9.68;64.91;99219.59;5072243;28;45439;-75
2022/11/20 11:11:55;;;;;;;;;3.00;3.00;;;;;9.72;64.82;99229.09;5067688;28;45463;-76
2022/11/20 11:14:20;;;;;;;;;7.75;6.00;;;;;9.73;64.48;99220.28;5071464;28;45465;-75
2022/11/20 11:16:54;;;;;;;;;6.50;5.00;;;;;9.73;64.72;99225.53;5072209;27;45435;-76
2022/11/20 11:19:20;;;;;;;;;6.00;4.75;;;;;9.72;64.96;99229.94;5066894;28;45514;-75
2022/11/20 11:21:54;;;;;;;;;7.00;3.25;;;;;9.72;64.87;99227.31;5062325;28;45903;-78
2022/11/20 11:24:24;;;;;;;;;5.75;4.75;;;;;9.72;64.41;99214.16;5072325;27;45529;-75
2022/11/20 11:26:57;;;;;;;;;5.00;5.00;;;;;9.74;64.68;99203.56;5070967;27;45518;-74
2022/11/20 11:29:23;;;;;;;;;4.50;3.50;;;;;9.80;64.51;99192.84;5070626;28;45831;-63
2022/11/20 11:31:49;;;;;;;;;6.00;4.00;;;;;9.82;63.45;99185.75;5071252;27;46508;-64
2022/11/20 11:34:17;;;;;;;;;4.00;3.75;;;;;9.83;63.98;99176.06;5069891;28;45583;-64
2022/11/20 11:36:55;;;;;;;;;6.00;6.00;;;;;9.85;63.45;99171.63;5071596;28;45367;-64
2022/11/20 11:39:21;;;;;;;;;4.00;4.00;;;;;9.83;63.97;99163.78;5063001;28;45470;-64
2022/11/20 11:41:48;;;;;;;;;5.25;5.25;;;;;9.87;61.95;99168.00;5069540;28;45508;-64
2022/11/20 11:47:22;;;;;;;;;4.75;4.75;;;;;9.94;62.93;99143.16;5061077;28;45577;-64
2022/11/20 11:49:48;;;;;;;;;5.00;4.25;;;;;10.01;62.30;99144.66;5072160;27;45485;-64
2022/11/20 11:52:17;;;;;;;;;6.00;5.00;;;;;10.09;62.56;99132.03;5066012;27;45668;-64
2022/11/20 11:55:03;;;;;;;;;4.00;4.00;;;;;10.21;61.39;99114.09;5071561;27;45514;-64
2022/11/20 11:57:46;;;;;;;;;4.50;4.00;;;;;10.30;61.81;99111.97;5065429;28;45478;-64
2022/11/20 12:00:15;;;;;;;;;4.00;4.00;;;;;10.36;60.86;99113.50;5071217;27;45432;-64